• Join FlightAware (Why Join?)
  • Login
  • US Flag 
08:45AM EDT


 

Airport Tracker/Info


-or-


 

Live Flight TrackerFlight Track Log ✈ UAL109 ✈ 13-Jul-2013 ✈ EGPH / EDI - KEWR

Flight Track Log - Related Links

Times and Time Zones

All times are in EDT time to prevent confusion due to time zone crossing. See the UAL109 flight status page for this flight to view local times or setup timezone preferences in your user account.

Time Position Orientation Groundspeed Altitude Reporting Facility
EDT Latitude Longitude Course Direction KTS MPH feet Rate Location/Type
07:03AM 55.9480 -3.3660 332° Northwest 9 10  Level FlightAware
07:04AM 55.9490 -3.3640 48° Northeast 14 16 360 Level FlightAware
07:04AM 55.9500 -3.3610 59° Northeast 14 16 420 Level FlightAware
07:05AM 55.9510 -3.3580 59° Northeast 19 22 480 Level FlightAware
07:06AM 55.9550 -3.3520 40° Northeast 5 6 600 Level FlightAware
07:07AM 55.9410 -3.3910 237° Southwest 198 228 1,320 Level FlightAware
07:07AM 55.9310 -3.4230 241° Southwest 175 201 1,800 3,360 Climbing FlightAware
07:08AM 55.9170 -3.4600 236° Southwest 178 205 3,100 1,980 Climbing FlightAware
07:08AM 55.9040 -3.5010 241° Southwest 208 239 3,800 1,500 Climbing FlightAware
07:09AM 55.9000 -3.5310 257° West 220 253 4,300 1,800 Climbing FlightAware
07:09AM 55.8960 -3.5780 261° West 242 278 5,100 2,040 Climbing FlightAware
07:09AM 55.8940 -3.5970 259° West 247 284 5,500 2,520 Climbing FlightAware
07:10AM 55.8880 -3.6580 260° West 257 296 6,800 2,700 Climbing FlightAware
07:10AM 55.8830 -3.7100 260° West 256 295 8,100 2,880 Climbing FlightAware
07:11AM 55.8760 -3.7810 260° West 261 300 9,600 2,220 Climbing FlightAware
07:11AM 55.8680 -3.8600 260° West 287 330 10,700 1,380 Climbing FlightAware
07:12AM 55.8511 -3.9786 260° West 364 419 11,500 1,200 Climbing FlightAware UK
07:12AM 55.8500 -3.9750 260° West 337 388 11,600 2,220 Climbing FlightAware
07:13AM 55.8210 -4.0760 243° Southwest 349 402 13,100 2,220 Climbing FlightAware
07:14AM 55.7893 -4.1936 243° Southwest 386 444 14,600 2,100 Climbing FlightAware UK
07:14AM 55.7890 -4.1850 243° Southwest 363 418 14,600 2,160 Level FlightAware
07:14AM 55.7613 -4.2896 243° Southwest 394 453 15,900 2,220 Climbing FlightAware UK
07:14AM 55.7550 -4.3040 243° Southwest 370 426 16,300 2,280 Climbing FlightAware
07:15AM 55.7220 -4.4150 242° Southwest 377 434 17,800 2,040 Climbing FlightAware
07:16AM 55.6860 -4.5410 243° Southwest 388 447 19,200 1,800 Climbing FlightAware
07:16AM 55.6589 -4.6385 243° Southwest 414 476 20,100 1,620 Climbing FlightAware UK
07:16AM 55.6520 -4.6550 243° Southwest 400 460 20,300 1,620 Climbing FlightAware
07:17AM 55.6130 -4.7850 242° Southwest 408 470 21,600 1,680 Climbing FlightAware
07:18AM 55.5780 -4.9050 243° Southwest 418 481 22,700 1,500 Climbing FlightAware
07:19AM 55.5410 -5.0290 242° Southwest 427 491 23,700 1,320 Climbing FlightAware
07:19AM 55.5084 -5.1433 242° Southwest 448 516 24,400 1,380 Climbing FlightAware UK
07:19AM 55.5040 -5.1550 242° Southwest 437 503 24,700 1,320 Climbing FlightAware
07:20AM 55.4647 -5.2969 242° Southwest 456 525 25,500 1,320 Climbing FlightAware UK
07:20AM 55.4650 -5.2930 242° Southwest 445 512 25,600 1,260 Climbing FlightAware
07:21AM 55.4290 -5.4160 243° Southwest 452 520 26,500 1,320 Climbing FlightAware
07:21AM 55.3830 -5.5740 243° Southwest 459 528 27,500 1,320 Climbing FlightAware
07:21AM 55.3785 -5.5917 243° Southwest 468 539 27,500 1,080 Level FlightAware UK
07:22AM 55.3490 -5.6915 243° Southwest 472 543 28,100 1,260 Climbing FlightAware UK
07:22AM 55.3480 -5.6920 243° Southwest 464 534 28,200 1,140 Climbing FlightAware
07:22AM 55.3131 -5.8128 243° Southwest 478 550 28,800 1,140 Climbing FlightAware UK
07:23AM 55.3090 -5.8270 243° Southwest 471 542 29,000 1,560 Climbing FlightAware
07:23AM 55.2670 -5.9680 242° Southwest 469 540 30,100 1,500 Climbing FlightAware
07:24AM 55.2225 -6.1160 242° Southwest 474 545 31,100 1,380 Climbing FlightAware UK
07:24AM 55.2250 -6.1090 242° Southwest 466 536 31,100 1,500 Level FlightAware
07:25AM 55.1866 -6.2347 242° Southwest 470 541 32,000 1,500 Climbing FlightAware UK
07:25AM 55.1860 -6.2370 242° Southwest 463 533 32,100 1,320 Climbing FlightAware
07:25AM 55.1540 -6.3440 242° Southwest 463 533 32,800 1,200 Climbing FlightAware
07:26AM 55.1140 -6.4760 242° Southwest 462 532 33,600 1,080 Climbing FlightAware
07:27AM 55.0760 -6.6020 242° Southwest 462 532 34,300 1,080 Climbing FlightAware
07:27AM 55.0665 -6.6296 242° Southwest 464 534 34,400 1,080 Climbing FlightAware UK
07:27AM 55.0363 -6.7276 242° Southwest 462 532 34,900 960 Climbing FlightAware UK
07:27AM 55.0340 -6.7410 242° Southwest 462 532 35,000 120 Climbing FlightAware
07:28AM 54.9930 -6.8750 242° Southwest 463 533 35,000  Level FlightAware
07:28AM 54.9570 -6.9900 242° Southwest 464 534 35,000  Level FlightAware
07:29AM 54.9441 -7.0241 242° Southwest 466 536 35,000  Level FlightAware UK
07:29AM 54.9134 -7.1227 242° Southwest 466 536 35,000  Level FlightAware UK
07:29AM 54.9150 -7.1240 242° Southwest 462 532 35,000  Level FlightAware
07:30AM 54.8700 -7.2700 242° Southwest 460 529 35,000  Level FlightAware
07:30AM 54.8340 -7.3840 241° Southwest 459 528 35,000  Level FlightAware
07:31AM 54.7839 -7.5318 241° Southwest 460 529 35,000  Level FlightAware UK
07:31AM 54.7830 -7.5460 241° Southwest 464 534 35,000  Level FlightAware
07:32AM 54.7410 -7.6780 241° Southwest 464 534 35,000  Level FlightAware
07:33AM 54.7050 -7.7890 241° Southwest 465 535 35,000  Level FlightAware
07:33AM 54.6903 -7.8226 241° Southwest 460 529 35,000  Level FlightAware UK
07:33AM 54.6590 -7.9198 241° Southwest 458 527 35,000  Level FlightAware UK
07:33AM 54.6530 -7.9510 241° Southwest 466 536 35,000  Level FlightAware
07:34AM 54.6160 -8.0670 241° Southwest 468 539 35,000  Level FlightAware
07:35AM 54.5740 -8.1950 241° Southwest 469 540 35,000  Level FlightAware
07:35AM 54.5637 -8.2116 241° Southwest 456 525 35,000  Level FlightAware UK
07:35AM 54.5316 -8.3086 241° Southwest 456 525 35,000  Level FlightAware UK
07:35AM 54.5270 -8.3390 241° Southwest 464 534 35,000  Level FlightAware
07:36AM 54.4850 -8.4680 241° Southwest 461 531 35,000  Level FlightAware
07:37AM 54.4420 -8.5980 241° Southwest 462 532 35,000  Level FlightAware
07:37AM 54.4308 -8.6131 241° Southwest 450 518 35,000  Level FlightAware UK
07:37AM 54.3990 -8.7082 241° Southwest 450 518 35,000  Level FlightAware UK
07:37AM 54.4000 -8.7250 241° Southwest 464 534 35,000  Level FlightAware
07:38AM 54.3520 -8.8670 240° Southwest 460 529 35,000  Level FlightAware
07:39AM 54.3140 -8.9810 240° Southwest 461 531 35,000  Level FlightAware
07:39AM 54.3031 -8.9939 240° Southwest 448 516 35,000  Level FlightAware UK
07:39AM 54.2700 -9.1110 240° Southwest 462 532 35,000  Level FlightAware
07:40AM 54.2210 -9.2560 240° Southwest 463 533 35,000  Level FlightAware
07:41AM 54.1780 -9.3810 240° Southwest 464 534 35,000  Level FlightAware
07:41AM 54.1350 -9.5070 240° Southwest 466 536 35,000  Level FlightAware
07:42AM 54.0840 -9.6540 239° Southwest 472 543 35,000  Level FlightAware
07:43AM 54.0410 -9.7800 240° Southwest 473 544 35,000  Level FlightAware
07:44AM 53.9960 -9.9090 239° Southwest 474 545 35,000  Level FlightAware
07:44AM 53.9450 -10.0520 239° Southwest 475 547 35,000  Level FlightAware
07:45AM 53.8780 -10.2410 239° Southwest 476 548 35,000  Level FlightAware
07:46AM 53.8320 -10.3710 239° Southwest 472 543 35,000  Level FlightAware
07:47AM 53.7860 -10.4990 239° Southwest 473 544 35,000  Level FlightAware
07:47AM 53.7390 -10.6290 239° Southwest 474 545 35,000  Level FlightAware
07:48AM 53.6890 -10.7680 239° Southwest 476 548 35,000  Level FlightAware
07:49AM 53.6420 -10.8970 238° Southwest 477 549 35,000  Level FlightAware
07:49AM 53.5900 -11.0390 238° Southwest 479 551 35,000  Level FlightAware
07:50AM 53.5420 -11.1670 238° Southwest 485 558 35,000  Level FlightAware
07:51AM 53.4890 -11.3110 238° Southwest 485 558 35,000  Level FlightAware
07:52AM 53.4300 -11.4680 238° Southwest 486 559 35,000  Level FlightAware
07:52AM 53.3820 -11.5970 238° Southwest 487 560 35,000  Level FlightAware
07:53AM 53.3340 -11.7250 238° Southwest 487 560 35,000  Level FlightAware
07:54AM 53.2940 -11.8280 237° Southwest 486 559 35,000  Level FlightAware
07:54AM 53.2380 -11.9770 238° Southwest 483 556 35,000  Level FlightAware
07:55AM 53.1880 -12.1060 237° Southwest 487 560 35,000  Level FlightAware
07:56AM 53.1360 -12.2400 237° Southwest 492 566 35,000  Level FlightAware
07:57AM 53.0580 -12.4410 237° Southwest 505 581 35,000  Level FlightAware
07:58AM 53.0040 -12.5780 237° Southwest 506 582 35,000  Level FlightAware
07:58AM 52.9570 -12.6980 237° Southwest 507 583 35,000  Level FlightAware
07:59AM 52.9020 -12.8380 237° Southwest 506 582 35,000  Level FlightAware
08:00AM 52.8490 -12.9710 237° Southwest 506 582 35,000  Level FlightAware
08:00AM 52.7940 -13.1100 237° Southwest 507 583 35,000  Level FlightAware
08:01AM 52.7410 -13.2450 237° Southwest 507 583 35,000  Level FlightAware
08:02AM 52.7020 -13.3450 237° Southwest 507 583 35,000  Level FlightAware
08:03AM 52.6360 -13.5100 237° Southwest 507 583 35,000  Level FlightAware
08:04AM 52.5840 -13.6420 237° Southwest 507 583 35,000  Level FlightAware
08:04AM 52.5450 -13.7410 237° Southwest 507 583 35,000  Level FlightAware
08:05AM 52.4930 -13.8730 237° Southwest 507 583 35,000  Level FlightAware
08:06AM 52.4540 -13.9720 237° Southwest 507 583 35,000  Level FlightAware
08:06AM 52.4040 -14.0980 237° Southwest 507 583 35,000  Level FlightAware
08:07AM 52.3640 -14.1990 237° Southwest 507 583 35,000  Level FlightAware
08:08AM 52.2990 -14.3640 237° Southwest 507 583 35,000  Level FlightAware
08:09AM 52.2590 -14.4620 236° Southwest 507 583 35,000  Level FlightAware
08:09AM 52.2070 -14.5930 237° Southwest 507 583 35,000  Level FlightAware
08:12AM 52.2411 -14.9791 278° West  Level Estimated
08:13AM 52.2567 -15.1604 278° West  Level Estimated
08:14AM 52.2720 -15.3417 278° West  Level Estimated
08:15AM 52.2870 -15.5232 278° West  Level Estimated
08:16AM 52.3017 -15.7047 278° West  Level Estimated
08:17AM 52.2505 -15.8894 246° West  Level FlightAware Approximate
08:18AM 52.1989 -16.0736 246° West  Level FlightAware Approximate
08:19AM 52.1471 -16.2574 245° Southwest  Level FlightAware Approximate
08:20AM 52.0949 -16.4407 245° Southwest  Level FlightAware Approximate
08:21AM 52.0425 -16.6236 245° Southwest  Level FlightAware Approximate
08:22AM 51.9898 -16.8061 245° Southwest  Level FlightAware Approximate
08:23AM 51.9368 -16.9882 245° Southwest  Level FlightAware Approximate
08:24AM 51.8836 -17.1698 245° Southwest  Level FlightAware Approximate
08:25AM 51.8300 -17.3510 245° Southwest  Level FlightAware Approximate
08:26AM 51.7762 -17.5318 244° Southwest  Level FlightAware Approximate
08:27AM 51.7221 -17.7121 244° Southwest  Level FlightAware Approximate
08:28AM 51.6678 -17.8920 244° Southwest  Level FlightAware Approximate
08:29AM 51.6131 -18.0715 244° Southwest  Level FlightAware Approximate
08:30AM 51.5582 -18.2505 244° Southwest  Level FlightAware Approximate
08:31AM 51.5030 -18.4292 244° Southwest  Level FlightAware Approximate
08:32AM 51.4476 -18.6073 244° Southwest  Level FlightAware Approximate
08:33AM 51.3918 -18.7851 243° Southwest  Level FlightAware Approximate
08:33AM 51.0000 -20.0000 265° West 514 592 35,000  Level ETMS Enhanced Traffic Management System
08:34AM 51.3359 -18.9624 243° Southwest  Level FlightAware Approximate
08:35AM 51.2796 -19.1393 243° Southwest  Level FlightAware Approximate
08:36AM 51.2231 -19.3157 243° Southwest  Level FlightAware Approximate
08:37AM 51.1663 -19.4917 243° Southwest  Level FlightAware Approximate
08:38AM 51.1092 -19.6673 243° Southwest  Level FlightAware Approximate
08:39AM 51.0519 -19.8424 243° Southwest  Level FlightAware Approximate
08:40AM 50.9012 -21.5809 264° West 514 592 35,000  Level FlightAware Transoceanic
08:41AM 50.8854 -21.8061 264° West 514 592 35,000  Level FlightAware Transoceanic
08:42AM 50.8691 -22.0312 263° West 514 592 35,000  Level FlightAware Transoceanic
08:43AM 50.8524 -22.2562 263° West 514 592 35,000  Level FlightAware Transoceanic
08:44AM 50.8352 -22.4810 263° West 514 592 35,000  Level FlightAware Transoceanic
08:45AM 50.8176 -22.7056 263° West 514 592 35,000  Level FlightAware Transoceanic
08:46AM 50.7996 -22.9301 263° West 514 592 35,000  Level FlightAware Transoceanic
08:47AM 50.7812 -23.1543 263° West 514 592 35,000  Level FlightAware Transoceanic
08:48AM 50.7623 -23.3784 262° West 514 592 35,000  Level FlightAware Transoceanic
08:49AM 50.7430 -23.6024 262° West 514 592 35,000  Level FlightAware Transoceanic
08:50AM 50.7233 -23.8261 262° West 514 592 35,000  Level FlightAware Transoceanic
08:51AM 50.7031 -24.0496 262° West 514 592 35,000  Level FlightAware Transoceanic
08:52AM 50.6826 -24.2729 262° West 514 592 35,000  Level FlightAware Transoceanic
08:53AM 50.6615 -24.4961 261° West 514 592 35,000  Level FlightAware Transoceanic
08:54AM 50.6401 -24.7190 261° West 514 592 35,000  Level FlightAware Transoceanic
08:55AM 50.6183 -24.9418 261° West 514 592 35,000  Level FlightAware Transoceanic
08:56AM 50.5960 -25.1643 261° West 514 592 35,000  Level FlightAware Transoceanic
08:57AM 50.5733 -25.3866 261° West 514 592 35,000  Level FlightAware Transoceanic
08:58AM 50.5501 -25.6087 261° West 514 592 35,000  Level FlightAware Transoceanic
08:59AM 50.5266 -25.8306 260° West 514 592 35,000  Level FlightAware Transoceanic
09:00AM 50.5026 -26.0523 260° West 514 592 35,000  Level FlightAware Transoceanic
09:01AM 50.4782 -26.2737 260° West 514 592 35,000  Level FlightAware Transoceanic
09:02AM 50.4534 -26.4949 260° West 514 592 35,000  Level FlightAware Transoceanic
09:03AM 50.4282 -26.7159 260° West 514 592 35,000  Level FlightAware Transoceanic
09:04AM 50.4025 -26.9366 260° West 514 592 35,000  Level FlightAware Transoceanic
09:05AM 50.3764 -27.1571 259° West 514 592 35,000  Level FlightAware Transoceanic
09:06AM 50.3500 -27.3773 259° West 514 592 35,000  Level FlightAware Transoceanic
09:07AM 50.3231 -27.5973 259° West 514 592 35,000  Level FlightAware Transoceanic
09:08AM 50.2957 -27.8171 259° West 514 592 35,000  Level FlightAware Transoceanic
09:09AM 50.2680 -28.0365 259° West 514 592 35,000  Level FlightAware Transoceanic
09:10AM 50.2399 -28.2558 259° West 514 592 35,000  Level FlightAware Transoceanic
09:11AM 50.2113 -28.4748 258° West 514 592 35,000  Level FlightAware Transoceanic
09:12AM 50.1824 -28.6935 258° West 514 592 35,000  Level FlightAware Transoceanic
09:13AM 50.1530 -28.9119 258° West 514 592 35,000  Level FlightAware Transoceanic
09:14AM 50.1232 -29.1301 258° West 514 592 35,000  Level FlightAware Transoceanic
09:15AM 50.0930 -29.3480 258° West 514 592 35,000  Level FlightAware Transoceanic
09:16AM 50.0624 -29.5656 258° West 514 592 35,000  Level FlightAware Transoceanic
09:17AM 50.0314 -29.7829 257° West 514 592 35,000  Level FlightAware Transoceanic
09:18AM 50.0042 -29.9713 257° West  Level FlightAware Approximate
09:19AM 49.9766 -30.1595 257° West  Level FlightAware Approximate
09:20AM 49.9925 -30.1337 265° West  Level FlightAware Approximate
09:21AM 49.9815 -30.3258 265° West  Level FlightAware Approximate
09:22AM 49.9701 -30.5180 265° West  Level FlightAware Approximate
09:23AM 49.9585 -30.7100 265° West  Level FlightAware Approximate
09:24AM 49.9465 -30.9019 265° West  Level FlightAware Approximate
09:25AM 49.9342 -31.0937 264° West  Level FlightAware Approximate
09:26AM 49.9216 -31.2854 264° West  Level FlightAware Approximate
09:27AM 49.9086 -31.4770 264° West  Level FlightAware Approximate
09:28AM 49.8954 -31.6685 264° West  Level FlightAware Approximate
09:29AM 49.8818 -31.8599 264° West  Level FlightAware Approximate
09:30AM 49.8680 -32.0513 264° West  Level FlightAware Approximate
09:31AM 49.8538 -32.2424 264° West  Level FlightAware Approximate
09:32AM 49.8393 -32.4335 263° West  Level FlightAware Approximate
09:33AM 49.8244 -32.6245 263° West  Level FlightAware Approximate
09:34AM 49.8093 -32.8153 263° West  Level FlightAware Approximate
09:35AM 49.7939 -33.0060 263° West  Level FlightAware Approximate
09:36AM 49.7781 -33.1966 263° West  Level FlightAware Approximate
09:37AM 49.7620 -33.3871 263° West  Level FlightAware Approximate
09:38AM 49.7457 -33.5774 262° West  Level FlightAware Approximate
09:39AM 49.7290 -33.7676 262° West  Level FlightAware Approximate
09:40AM 49.7119 -33.9577 262° West  Level FlightAware Approximate
09:41AM 49.6946 -34.1477 262° West  Level FlightAware Approximate
09:42AM 49.6770 -34.3375 262° West  Level FlightAware Approximate
09:43AM 49.6591 -34.5271 262° West  Level FlightAware Approximate
09:44AM 49.6408 -34.7167 262° West  Level FlightAware Approximate
09:45AM 49.6223 -34.9061 261° West  Level FlightAware Approximate
09:46AM 49.6034 -35.0953 261° West  Level FlightAware Approximate
09:47AM 49.5842 -35.2844 261° West  Level FlightAware Approximate
09:48AM 49.5648 -35.4733 261° West  Level FlightAware Approximate
09:49AM 49.5450 -35.6621 261° West  Level FlightAware Approximate
09:50AM 49.5249 -35.8508 261° West  Level FlightAware Approximate
09:51AM 49.5045 -36.0392 261° West  Level FlightAware Approximate
09:52AM 49.4838 -36.2276 260° West  Level FlightAware Approximate
09:53AM 49.4627 -36.4157 260° West  Level FlightAware Approximate
09:54AM 49.4414 -36.6037 260° West  Level FlightAware Approximate
09:55AM 49.4198 -36.7916 260° West  Level FlightAware Approximate
09:56AM 49.3979 -36.9792 260° West  Level FlightAware Approximate
09:57AM 49.3756 -37.1667 260° West  Level FlightAware Approximate
09:58AM 49.3531 -37.3541 260° West  Level FlightAware Approximate
09:59AM 49.3303 -37.5412 259° West  Level FlightAware Approximate
10:00AM 49.3072 -37.7282 259° West  Level FlightAware Approximate
10:01AM 49.2837 -37.9150 259° West  Level FlightAware Approximate
10:02AM 49.2600 -38.1017 259° West  Level FlightAware Approximate
10:03AM 49.2359 -38.2881 259° West  Level FlightAware Approximate
10:04AM 49.2116 -38.4744 259° West  Level FlightAware Approximate
10:05AM 49.1870 -38.6604 259° West  Level FlightAware Approximate
10:06AM 49.1620 -38.8463 258° West  Level FlightAware Approximate
10:07AM 49.1368 -39.0320 258° West  Level FlightAware Approximate
10:08AM 49.1113 -39.2176 258° West  Level FlightAware Approximate
10:09AM 49.0854 -39.4029 258° West  Level FlightAware Approximate
10:10AM 49.0593 -39.5880 258° West  Level FlightAware Approximate
10:11AM 49.0329 -39.7729 258° West  Level FlightAware Approximate
10:12AM 49.0062 -39.9577 258° West  Level FlightAware Approximate
10:13AM 48.9910 -40.1451 265° West  Level FlightAware Approximate
10:14AM 48.9791 -40.3332 265° West  Level FlightAware Approximate
10:15AM 48.9669 -40.5213 264° West  Level FlightAware Approximate
10:16AM 48.9544 -40.7093 264° West  Level FlightAware Approximate
10:17AM 48.9416 -40.8972 264° West  Level FlightAware Approximate
10:18AM 48.9284 -41.0850 264° West  Level FlightAware Approximate
10:19AM 48.9150 -41.2727 264° West  Level FlightAware Approximate
10:20AM 48.9013 -41.4603 264° West  Level FlightAware Approximate
10:21AM 48.8872 -41.6478 264° West  Level FlightAware Approximate
10:22AM 48.8729 -41.8351 263° West  Level FlightAware Approximate
10:23AM 48.8582 -42.0224 263° West  Level FlightAware Approximate
10:24AM 48.8433 -42.2096 263° West  Level FlightAware Approximate
10:25AM 48.8280 -42.3966 263° West  Level FlightAware Approximate
10:26AM 48.8129 -42.5836 263° West  Level FlightAware Approximate
10:27AM 48.7985 -42.7707 263° West  Level FlightAware Approximate
10:28AM 48.7838 -42.9577 263° West  Level FlightAware Approximate
10:29AM 48.7688 -43.1446 263° West  Level FlightAware Approximate
10:30AM 48.7536 -43.3314 263° West  Level FlightAware Approximate
10:31AM 48.7380 -43.5180 263° West  Level FlightAware Approximate
10:32AM 48.7221 -43.7046 263° West  Level FlightAware Approximate
10:33AM 48.7059 -43.8910 263° West  Level FlightAware Approximate
10:34AM 48.6895 -44.0773 262° West  Level FlightAware Approximate
10:35AM 48.6727 -44.2635 262° West  Level FlightAware Approximate
10:36AM 48.6556 -44.4495 262° West  Level FlightAware Approximate
10:37AM 48.6382 -44.6354 262° West  Level FlightAware Approximate
10:38AM 48.6206 -44.8212 262° West  Level FlightAware Approximate
10:39AM 48.6026 -45.0069 262° West  Level FlightAware Approximate
10:40AM 48.5838 -45.1923 261° West  Level FlightAware Approximate
10:41AM 48.5647 -45.3776 261° West  Level FlightAware Approximate
10:42AM 48.5453 -45.5627 261° West  Level FlightAware Approximate
10:43AM 48.5256 -45.7477 261° West  Level FlightAware Approximate
10:44AM 48.5055 -45.9325 261° West  Level FlightAware Approximate
10:45AM 48.4852 -46.1172 261° West  Level FlightAware Approximate
10:46AM 48.4647 -46.3017 261° West  Level FlightAware Approximate
10:47AM 48.4444 -46.4863 261° West  Level FlightAware Approximate
10:48AM 48.4238 -46.6707 261° West  Level FlightAware Approximate
10:49AM 48.4029 -46.8549 260° West  Level FlightAware Approximate
10:50AM 48.3817 -47.0390 260° West  Level FlightAware Approximate
10:51AM 48.3602 -47.2229 260° West  Level FlightAware Approximate
10:52AM 48.3384 -47.4067 260° West  Level FlightAware Approximate
10:53AM 48.3163 -47.5903 260° West  Level FlightAware Approximate
10:54AM 48.2940 -47.7738 260° West  Level FlightAware Approximate
10:55AM 48.2713 -47.9571 260° West  Level FlightAware Approximate
10:56AM 48.2484 -48.1402 259° West  Level FlightAware Approximate
10:57AM 48.2251 -48.3232 259° West  Level FlightAware Approximate
10:58AM 48.2023 -48.5009 259° West  Level FlightAware Approximate
10:59AM 48.1791 -48.6784 259° West  Level FlightAware Approximate
11:00AM 48.1557 -48.8558 259° West  Level FlightAware Approximate
11:01AM 48.1320 -49.0331 259° West  Level FlightAware Approximate
11:02AM 48.1081 -49.2101 259° West  Level FlightAware Approximate
11:03AM 48.0839 -49.3870 258° West  Level FlightAware Approximate
11:03AM 47.9930 -50.1880 258° West 426 490 35,000  Level FlightAware
11:04AM 48.0593 -49.5637 258° West  Level FlightAware Approximate
11:04AM 47.9720 -50.3050 255° West 424 488 35,100  Level FlightAware
11:05AM 47.9520 -50.4190 255° West 417 480 36,200 1,500 Climbing FlightAware
11:06AM 47.9290 -50.5430 255° West 414 476 37,300 1,200 Climbing FlightAware
11:06AM 47.9070 -50.6660 255° West 415 478 38,000 480 Climbing FlightAware
11:07AM 47.8870 -50.7760 255° West 416 479 38,000  Level FlightAware
11:08AM 47.8640 -50.9000 255° West 419 482 38,000  Level FlightAware
11:08AM 47.8430 -51.0150 255° West 420 483 38,000  Level FlightAware
11:09AM 47.8230 -51.1210 254° West 419 482 38,000  Level FlightAware
11:10AM 47.7980 -51.2510 254° West 419 482 38,000  Level FlightAware
11:10AM 47.7780 -51.3560 254° West 418 481 38,000  Level FlightAware
11:11AM 47.7550 -51.4810 255° West 418 481 38,000  Level FlightAware
11:12AM 47.7320 -51.6000 254° West 418 481 38,000  Level FlightAware
11:13AM 47.6990 -51.7720 254° West 418 481 38,000  Level FlightAware
11:14AM 47.6800 -51.8710 254° West 418 481 38,000  Level FlightAware
11:14AM 47.6560 -51.9940 254° West 417 480 38,000  Level FlightAware
11:15AM 47.6340 -52.1040 254° West 417 480 38,000  Level FlightAware
11:16AM 47.6100 -52.2290 254° West 416 479 38,000  Level FlightAware
11:16AM 47.5880 -52.3380 253° West 415 478 38,000  Level FlightAware
11:17AM 47.5640 -52.4590 254° West 413 475 38,000  Level FlightAware
11:18AM 47.5420 -52.5670 253° West 413 475 38,000  Level FlightAware
11:18AM 47.5210 -52.6740 254° West 413 475 38,000  Level FlightAware
11:19AM 47.4960 -52.7990 254° West 412 474 38,000  Level FlightAware
11:20AM 47.4750 -52.9030 253° West 411 473 38,000  Level FlightAware
11:21AM 47.4520 -53.0130 253° West 410 472 38,000  Level FlightAware
11:21AM 47.4280 -53.1320 253° West 408 470 38,000  Level FlightAware
11:22AM 47.4110 -53.2140 253° West 408 470 38,000  Level FlightAware
11:23AM 47.3840 -53.3450 253° West 405 466 38,000  Level FlightAware
11:23AM 47.3620 -53.4500 253° West 404 465 38,000  Level FlightAware
11:24AM 47.3400 -53.5570 253° West 403 464 38,000  Level FlightAware
11:25AM 47.3180 -53.6610 253° West 402 463 38,000  Level FlightAware
11:25AM 47.2940 -53.7790 253° West 401 461 38,000  Level FlightAware
11:26AM 47.2710 -53.8840 252° West 401 461 38,000  Level FlightAware
11:27AM 47.2460 -54.0020 253° West 400 460 38,000  Level FlightAware
11:27AM 47.2240 -54.1060 253° West 398 458 38,000  Level FlightAware
11:28AM 47.2000 -54.2200 253° West 394 453 38,000  Level FlightAware
11:29AM 47.1800 -54.3120 252° West 391 450 38,000  Level FlightAware
11:30AM 47.1540 -54.4360 253° West 387 445 38,000  Level FlightAware
11:30AM 47.1320 -54.5340 252° West 389 448 38,000  Level FlightAware
11:31AM 47.1110 -54.6340 253° West 389 448 38,000  Level FlightAware
11:32AM 47.0900 -54.7300 252° West 388 447 38,000 360 Level FlightAware
11:32AM 47.0670 -54.8350 252° West 383 441 38,500 540 Climbing FlightAware
11:33AM 47.0450 -54.9340 252° West 392 451 38,800 360 Climbing FlightAware
11:34AM 47.0220 -55.0390 252° West 402 463 39,000 120 Climbing FlightAware
11:34AM 46.9960 -55.1570 252° West 401 461 39,000  Level FlightAware
11:35AM 46.9650 -55.2960 252° West 400 460 39,000  Level FlightAware
11:36AM 46.9500 -55.3670 253° West 397 457 39,000  Level FlightAware
11:37AM 46.9190 -55.5010 251° West 394 453 39,000  Level FlightAware
11:37AM 46.8970 -55.6030 253° West 392 451 39,000  Level FlightAware
11:38AM 46.8770 -55.6900 251° West 391 450 39,000  Level FlightAware
11:39AM 46.8560 -55.7840 252° West 389 448 39,000  Level FlightAware
11:39AM 46.8320 -55.8890 252° West 389 448 39,000  Level FlightAware
11:40AM 46.8140 -55.9680 252° West 389 448 39,000  Level FlightAware
11:41AM 46.7900 -56.0690 251° West 389 448 39,000  Level FlightAware
11:41AM 46.7620 -56.1960 252° West 393 452 39,000  Level FlightAware
11:42AM 46.7330 -56.3200 251° West 399 459 39,000  Level FlightAware
11:43AM 46.7140 -56.3980 250° West 399 459 39,000  Level FlightAware
11:44AM 46.6810 -56.5440 252° West 403 464 39,000  Level FlightAware
11:44AM 46.6500 -56.6770 251° West 407 468 39,000  Level FlightAware
11:45AM 46.6200 -56.8050 251° West 412 474 39,000  Level FlightAware
11:46AM 46.5890 -56.9380 251° West 414 476 39,000  Level FlightAware
11:47AM 46.5700 -57.0170 251° West 414 476 39,000  Level FlightAware
11:47AM 46.5450 -57.1240 251° West 414 476 39,000  Level FlightAware
11:48AM 46.5140 -57.2510 251° West 420 483 39,000  Level FlightAware
11:49AM 46.4910 -57.3450 250° West 421 484 39,000  Level FlightAware
11:50AM 46.4570 -57.4850 251° West 421 484 39,000  Level FlightAware
11:50AM 46.4310 -57.5940 251° West 424 488 39,000  Level FlightAware
11:51AM 46.4030 -57.7080 250° West 425 489 39,000  Level FlightAware
11:52AM 46.3770 -57.8150 251° West 426 490 39,000  Level FlightAware
11:52AM 46.3530 -57.9120 250° West 426 490 39,000  Level FlightAware
11:53AM 46.3130 -58.0730 250° West 426 490 39,000  Level FlightAware
11:54AM 46.2860 -58.1810 250° West 426 490 39,000  Level FlightAware
11:54AM 46.2590 -58.2880 250° West 426 490 39,000  Level FlightAware
11:55AM 46.2310 -58.4000 250° West 426 490 39,000  Level FlightAware
11:56AM 46.2050 -58.5020 250° West 427 491 39,000  Level FlightAware
11:56AM 46.1820 -58.5930 250° West 429 494 39,000  Level FlightAware
11:57AM 46.1530 -58.7050 250° West 431 496 39,000  Level FlightAware
11:58AM 46.1250 -58.8140 250° West 433 498 39,000  Level FlightAware
11:58AM 46.0950 -58.9310 250° West 434 499 39,000  Level FlightAware
11:59AM 46.0660 -59.0410 249° West 435 501 39,000  Level FlightAware
12:00PM 46.0360 -59.1530 249° West 437 503 39,000  Level FlightAware
12:01PM 46.0080 -59.2630 250° West 437 503 39,000  Level FlightAware
12:01PM 45.9810 -59.3640 249° West 438 504 39,000  Level FlightAware
12:02PM 45.9480 -59.4860 249° West 439 505 39,000  Level FlightAware
12:02PM 45.9230 -59.5820 250° West 440 506 39,000  Level FlightAware
12:03PM 45.8960 -59.6810 249° West 441 507 39,000  Level FlightAware
12:04PM 45.8640 -59.8010 249° West 442 509 39,000  Level FlightAware
12:04PM 45.8370 -59.9000 249° West 444 511 39,000  Level FlightAware
12:05PM 45.8010 -60.0310 249° West 446 513 39,000  Level FlightAware
12:06PM 45.7720 -60.1390 249° West 448 516 39,000  Level FlightAware
12:07PM 45.7370 -60.2630 248° West 448 516 39,000  Level FlightAware
12:07PM 45.7070 -60.3720 249° West 448 516 39,000  Level FlightAware
12:08PM 45.6740 -60.4890 248° West 448 516 39,000  Level FlightAware
12:09PM 45.6430 -60.6000 248° West 447 514 39,000  Level FlightAware
12:09PM 45.6100 -60.7180 248° West 446 513 39,000  Level FlightAware
12:10PM 45.5750 -60.8400 248° West 445 512 39,000  Level FlightAware
12:11PM 45.5450 -60.9450 248° West 445 512 39,000  Level FlightAware
12:12PM 45.5120 -61.0580 247° West 444 511 39,000  Level FlightAware
12:13PM 45.4600 -61.2390 248° West 443 510 39,000  Level FlightAware
12:13PM 45.4350 -61.3210 247° West 443 510 39,000  Level FlightAware
12:14PM 45.4110 -61.4010 247° West 443 510 39,000  Level FlightAware
12:15PM 45.3790 -61.5080 247° West 443 510 39,000  Level FlightAware
12:15PM 45.3560 -61.5860 247° West 443 510 39,000  Level FlightAware
12:16PM 45.3310 -61.6700 247° West 443 510 39,000  Level FlightAware
12:17PM 45.2980 -61.7820 247° West 443 510 39,000  Level FlightAware
12:17PM 45.2730 -61.8640 247° West 443 510 39,000  Level FlightAware
12:18PM 45.2400 -61.9760 247° West 443 510 39,000  Level FlightAware
12:19PM 45.2160 -62.0550 247° West 443 510 39,000  Level FlightAware
12:19PM 45.1830 -62.1650 247° West 443 510 39,000  Level FlightAware
12:20PM 45.1590 -62.2470 247° West 443 510 39,000  Level FlightAware
12:21PM 45.1340 -62.3280 246° West 443 510 39,000  Level FlightAware
12:21PM 45.1010 -62.4370 247° West 443 510 39,000  Level FlightAware
12:22PM 45.0760 -62.5210 247° West 443 510 39,000  Level FlightAware
12:24PM 44.8950 -63.0910 246° West 39,000  Level FlightAware
12:25PM 44.8620 -63.1940 246° West 445 512 39,000  Level FlightAware
12:26PM 44.8280 -63.3020 246° West 444 511 39,000  Level FlightAware
12:26PM 44.7910 -63.4170 246° West 444 511 39,000  Level FlightAware
12:27PM 44.7550 -63.5300 246° West 444 511 39,000  Level FlightAware
12:28PM 44.7210 -63.6340 245° Southwest 443 510 39,000  Level FlightAware
12:28PM 44.6810 -63.7560 245° Southwest 443 510 39,000  Level FlightAware
12:29PM 44.6430 -63.8700 245° Southwest 443 510 39,000  Level FlightAware
12:30PM 44.6090 -63.9730 245° Southwest 445 512 39,000  Level FlightAware
12:31PM 44.5720 -64.0860 245° Southwest 446 513 39,000  Level FlightAware
12:31PM 44.5400 -64.1840 245° Southwest 446 513 39,000  Level FlightAware
12:32PM 44.5010 -64.2990 245° Southwest 447 514 39,000  Level FlightAware
12:33PM 44.4640 -64.4110 245° Southwest 447 514 39,000  Level FlightAware
12:33PM 44.4260 -64.5240 245° Southwest 447 514 39,000  Level FlightAware
12:34PM 44.3890 -64.6320 244° Southwest 448 516 39,000  Level FlightAware
12:35PM 44.3540 -64.7370 245° Southwest 448 516 39,000  Level FlightAware
12:35PM 44.3140 -64.8530 244° Southwest 448 516 39,000  Level FlightAware
12:36PM 44.2770 -64.9610 244° Southwest 447 514 39,000  Level FlightAware
12:37PM 44.2410 -65.0660 244° Southwest 446 513 39,000  Level FlightAware
12:37PM 44.2040 -65.1720 244° Southwest 446 513 39,000  Level FlightAware
12:38PM 44.1650 -65.2870 245° Southwest 447 514 39,000  Level FlightAware
12:39PM 44.1300 -65.3860 244° Southwest 447 514 39,000  Level FlightAware
12:40PM 44.0890 -65.5050 244° Southwest 446 513 39,000  Level FlightAware
12:40PM 44.0530 -65.6080 244° Southwest 446 513 39,000  Level FlightAware
12:41PM 44.0220 -65.6960 244° Southwest 445 512 39,000  Level FlightAware
12:42PM 43.9770 -65.8250 244° Southwest 445 512 39,000  Level FlightAware
12:42PM 43.9400 -65.9310 244° Southwest 443 510 39,000  Level FlightAware
12:43PM 43.9040 -66.0300 243° Southwest 442 509 39,000  Level FlightAware
12:44PM 43.8640 -66.1430 244° Southwest 440 506 39,000  Level FlightAware
12:44PM 43.8290 -66.2440 244° Southwest 439 505 39,000  Level FlightAware
12:45PM 43.7920 -66.3450 243° Southwest 438 504 39,000  Level FlightAware
12:46PM 43.7530 -66.4560 244° Southwest 436 502 39,000  Level FlightAware
12:47PM 43.7170 -66.5550 243° Southwest 436 502 39,000  Level FlightAware
12:47PM 43.6850 -66.6430 243° Southwest 434 499 39,000  Level FlightAware
12:48PM 43.6450 -66.7550 244° Southwest 433 498 39,000  Level FlightAware
12:49PM 43.5910 -66.9040 243° Southwest 431 496 39,000  Level FlightAware
12:50PM 43.5520 -67.0150 244° Southwest 422 486 39,000  Level FlightAware
12:50PM 43.5240 -67.1130 249° West 416 479 39,000  Level FlightAware
12:51PM 43.4920 -67.2270 249° West 416 479 39,000  Level FlightAware
12:52PM 43.4650 -67.3220 249° West 412 474 39,000  Level FlightAware
12:52PM 43.4370 -67.4210 249° West 411 473 39,000  Level FlightAware
12:53PM 43.4070 -67.5290 249° West 410 472 39,000  Level FlightAware
12:54PM 43.3790 -67.6260 248° West 409 471 39,000  Level FlightAware
12:55PM 43.3480 -67.7330 248° West 409 471 39,000  Level FlightAware
12:55PM 43.3190 -67.8340 248° West 410 472 39,000  Level FlightAware
12:56PM 43.2910 -67.9320 249° West 409 471 39,000  Level FlightAware
12:57PM 43.2640 -68.0250 248° West 412 474 39,000  Level FlightAware
12:57PM 43.2380 -68.1180 249° West 412 474 39,000  Level FlightAware
12:58PM 43.2030 -68.2360 248° West 416 479 39,000  Level FlightAware
12:59PM 43.1730 -68.3390 248° West 419 482 39,000  Level FlightAware
12:59PM 43.1410 -68.4490 248° West 420 483 39,000  Level FlightAware
01:00PM 43.1150 -68.5380 248° West 420 483 39,000  Level FlightAware
01:01PM 43.0830 -68.6480 248° West 420 483 39,000  Level FlightAware
01:02PM 43.0490 -68.7640 248° West 425 489 39,000  Level FlightAware
01:02PM 43.0200 -68.8620 248° West 425 489 39,000  Level FlightAware
01:03PM 42.9910 -68.9600 248° West 426 490 39,000  Level FlightAware
01:04PM 42.9570 -69.0740 248° West 426 490 39,000  Level FlightAware
01:04PM 42.9280 -69.1730 248° West 426 490 39,000  Level FlightAware
01:05PM 42.8940 -69.2850 248° West 426 490 39,000  Level FlightAware
01:06PM 42.8650 -69.3830 248° West 427 491 39,000  Level FlightAware
01:06PM 42.8340 -69.4840 247° West 428 493 39,000  Level FlightAware
01:07PM 42.8040 -69.5840 248° West 429 494 39,000  Level FlightAware
01:08PM 42.7740 -69.6840 248° West 430 495 39,000  Level FlightAware
01:08PM 42.7430 -69.7850 247° West 431 496 39,000 -180 Level FlightAware
01:09PM 42.7080 -69.8980 247° West 433 498 38,800 -1,140 Descending FlightAware
01:10PM 42.6820 -69.9860 248° West 431 496 37,500 -2,520 Descending FlightAware
01:10PM 42.6510 -70.0850 247° West 437 503 35,700 -2,640 Descending FlightAware
01:11PM 42.6220 -70.1790 247° West 447 514 33,900 -3,360 Descending FlightAware
01:12PM 42.5790 -70.3150 247° West 459 528 30,900 -3,480 Descending FlightAware
01:12PM 42.5540 -70.4060 250° West 470 541 29,400 -1,980 Descending FlightAware
01:13PM 42.5200 -70.5370 251° West 461 531 28,200 -1,020 Descending FlightAware
01:14PM 42.4940 -70.6440 252° West 455 524 28,000 -180 Descending FlightAware
01:14PM 42.4660 -70.7540 251° West 460 529 28,000 -660 Level FlightAware
01:15PM 42.4380 -70.8670 251° West 453 521 27,100 -1,800 Descending FlightAware
01:16PM 42.4120 -70.9730 252° West 444 511 25,600 -2,280 Descending FlightAware
01:17PM 42.3860 -71.0740 251° West 434 499 24,100 -2,340 Descending FlightAware
01:17PM 42.3630 -71.1640 251° West 421 484 22,700 -2,340 Descending FlightAware
01:18PM 42.3360 -71.2710 251° West 410 472 21,100 -1,980 Descending FlightAware
01:18PM 42.3120 -71.3620 250° West 407 468 20,100 -960 Descending FlightAware
01:19PM 42.2830 -71.4770 251° West 407 468 19,800 -780 Descending FlightAware
01:20PM 42.2590 -71.5680 250° West 402 463 19,000 -1,200 Descending FlightAware
01:21PM 42.2320 -71.6720 251° West 393 452 18,200 -1,080 Descending FlightAware
01:21PM 42.2080 -71.7630 250° West 389 448 17,500 -1,140 Descending FlightAware
01:22PM 42.1780 -71.8780 251° West 386 444 16,500 -900 Descending FlightAware
01:23PM 42.1890 -71.8360 71° East 379 436 15,700 -420 Descending FlightAware
01:24PM 42.1670 -71.9240 251° West 379 436 15,700  Level FlightAware
01:25PM 42.1490 -71.9920 250° West 379 436 15,700  Level FlightAware
01:26PM 42.1260 -72.0830 251° West 379 436 15,700  Level FlightAware
01:26PM 42.1090 -72.1520 252° West 379 436 15,700  Level FlightAware
01:28PM 41.9660 -72.6660 250° West 378 435 15,700  Level FlightAware
01:29PM 41.9480 -72.7300 249° West 378 435 15,700  Level FlightAware
01:29PM 41.9300 -72.7960 250° West 378 435 15,700  Level FlightAware
01:30PM 41.9060 -72.8880 251° West 378 435 15,700  Level FlightAware
01:31PM 41.8870 -72.9570 250° West 378 435 15,700  Level FlightAware
01:35PM 41.7050 -73.6290 250° West 377 434 15,700  Level FlightAware
01:36PM 41.6730 -73.7210 245° Southwest 376 433 15,700 -480 Level FlightAware
01:37PM 41.6400 -73.8150 245° Southwest 368 423 15,000 -1,320 Descending FlightAware
01:37PM 41.6270 -73.8510 244° Southwest 366 421 14,400 -2,400 Descending FlightAware ADS-B
01:38PM 41.6027 -73.9205 245° Southwest 362 417 13,000 -2,340 Descending FlightAware ADS-B
01:39PM 41.5604 -74.0395 245° Southwest 360 414 10,800 -1,920 Descending FlightAware ADS-B
01:39PM 41.5391 -74.0995 245° Southwest 329 379 10,100 -900 Descending FlightAware ADS-B
01:40PM 41.5214 -74.1490 244° Southwest 301 346 9,900 -420 Descending FlightAware ADS-B
01:40PM 41.5030 -74.1990 244° Southwest 259 298 9,700 -300 Descending FlightAware
01:41PM 41.4880 -74.2410 245° Southwest 254 292 9,600 -1,740 Descending FlightAware
01:41PM 41.4698 -74.2927 245° Southwest 261 300 7,900 -2,160 Descending FlightAware ADS-B
01:42PM 41.4276 -74.3394 220° Southwest 255 293 6,800 -780 Descending FlightAware ADS-B
01:43PM 41.3730 -74.3590 195° South 256 295 6,700 -120 Descending FlightAware
01:43PM 41.3480 -74.3690 197° South 256 295 6,700  Level FlightAware
01:45PM 41.2034 -74.4268 197° South 253 291 6,700  Level FlightAware ADS-B
01:46PM 41.1967 -74.4293 196° South 253 291 6,700 -480 Level FlightAware ADS-B
01:46PM 41.1561 -74.4451 196° South 253 291 6,400 -480 Descending FlightAware ADS-B
01:46PM 41.1543 -74.4460 201° Southwest 254 292 6,400 -1,080 Level FlightAware ADS-B
01:47PM 41.1311 -74.4552 197° South 251 289 6,000 -1,440 Descending FlightAware ADS-B
01:47PM 41.1033 -74.4664 197° South 252 290 5,300 -1,560 Descending FlightAware ADS-B
01:47PM 41.0789 -74.4763 197° South 253 291 4,800 -900 Descending FlightAware ADS-B
01:48PM 41.0559 -74.4858 197° South 255 293 4,700 -120 Descending FlightAware ADS-B
01:49PM 41.0000 -74.5090 197° South 254 292 4,700  Level FlightAware
01:49PM 40.9430 -74.5310 196° South 256 295 4,700 60 Level FlightAware
01:50PM 40.9300 -74.5310 180° South 256 295 4,800  Climbing FlightAware
01:50PM 40.8970 -74.5280 176° South 258 297 4,700 -120 Descending FlightAware
01:51PM 40.8557 -74.5246 176° South 257 296 4,700  Level FlightAware ADS-B
01:51PM 40.8300 -74.5236 178° South 257 296 4,700  Level FlightAware ADS-B
01:51PM 40.8058 -74.5229 179° South 256 295 4,700  Level FlightAware ADS-B
01:52PM 40.7687 -74.5215 178° South 257 296 4,700  Level FlightAware ADS-B
01:52PM 40.7663 -74.5213 176° South 258 297 4,700  Level FlightAware ADS-B
01:52PM 40.7472 -74.5206 178° South 260 299 4,700  Level FlightAware ADS-B
01:52PM 40.7215 -74.5200 179° South 260 299 4,700  Level FlightAware ADS-B
01:53PM 40.7062 -74.5203 181° South 256 295 4,700  Level FlightAware ADS-B
01:53PM 40.6582 -74.5215 181° South 259 298 4,700  Level FlightAware ADS-B
01:54PM 40.6432 -74.5186 172° South 259 298 4,700  Level FlightAware ADS-B
01:54PM 40.6352 -74.5136 155° Southeast 263 303 4,700 300 Level FlightAware ADS-B
01:54PM 40.6254 -74.5033 141° Southeast 266 306 4,800  Climbing FlightAware ADS-B
01:54PM 40.6104 -74.4837 135° Southeast 267 307 4,700 -180 Descending FlightAware ADS-B
01:54PM 40.5893 -74.4556 135° Southeast 267 307 4,700  Level FlightAware ADS-B
01:55PM 40.5751 -74.4371 135° Southeast 272 313 4,700  Level FlightAware ADS-B
01:55PM 40.5638 -74.4214 133° Southeast 270 311 4,700  Level FlightAware ADS-B
01:55PM 40.5585 -74.4104 122° Southeast 272 313 4,700  Level FlightAware ADS-B
01:55PM 40.5565 -74.4042 113° Southeast 273 314 4,700 -1,140 Level FlightAware ADS-B
01:55PM 40.5546 -74.3920 102° East 272 313 4,500 -1,440 Descending FlightAware ADS-B
01:56PM 40.5564 -74.3622 85° East 264 304 4,100 -1,320 Descending FlightAware ADS-B
01:56PM 40.5607 -74.3330 79° East 253 291 3,700 -1,320 Descending FlightAware ADS-B
01:57PM 40.5713 -74.2786 76° East 230 265 2,900 -1,320 Descending FlightAware ADS-B
01:57PM 40.5723 -74.2729 77° East 226 260 2,800 -1,380 Descending FlightAware ADS-B
01:57PM 40.5741 -74.2665 70° East 221 254 2,700 -780 Descending FlightAware ADS-B
01:57PM 40.5753 -74.2628 67° East 218 251 2,700 -600 Level FlightAware ADS-B
01:57PM 40.5847 -74.2463 53° Northeast 196 226 2,500 -840 Descending FlightAware ADS-B
01:57PM 40.5897 -74.2424 31° Northeast 189 217 2,400 -1,440 Descending FlightAware ADS-B
01:57PM 40.5952 -74.2387 27° Northeast 184 212 2,200 -1,740 Descending FlightAware ADS-B
01:58PM 40.6105 -74.2291 25° Northeast 179 206 1,600 -1,320 Descending FlightAware ADS-B
01:58PM 40.6231 -74.2209 26° Northeast 178 205 1,400 -780 Descending FlightAware ADS-B
01:58PM 40.6333 -74.2147 25° Northeast 150 173 1,200 -1,080 Descending FlightAware ADS-B
01:58PM 40.6381 -74.2120 23° Northeast 148 170 1,000 -1,080 Descending FlightAware ADS-B
01:59PM 40.6474 -74.2060 26° Northeast 144 166 800 -900 Descending FlightAware ADS-B
01:59PM 40.6578 -74.1989 27° Northeast 141 162 500 -1,140 Descending FlightAware ADS-B
01:59PM 40.6666 -74.1933 26° Northeast 138 159 200 -1,080 Descending FlightAware ADS-B
01:59PM 40.6712 -74.1904 26° Northeast 137 158 100 -780 Descending FlightAware ADS-B